createdAt,value
2019-05-23T00:00:50.830Z,101127.30
2019-05-23T00:06:34.763Z,101129.54
2019-05-23T00:12:34.985Z,101132.93
2019-05-23T00:18:04.886Z,101132.67
2019-05-23T00:23:28.852Z,101140.30
2019-05-23T00:29:09.027Z,101138.37
2019-05-23T00:34:21.818Z,101131.48
2019-05-23T00:39:47.006Z,101135.25
2019-05-23T00:45:12.596Z,101135.47
2019-05-23T00:50:37.111Z,101135.90
2019-05-23T00:56:02.647Z,101143.16
2019-05-23T01:01:27.071Z,101143.98
2019-05-23T01:06:50.887Z,101150.90
2019-05-23T01:12:15.947Z,101155.19
2019-05-23T01:17:40.757Z,101157.39
2019-05-23T01:23:07.489Z,101155.36
2019-05-23T01:28:32.086Z,101157.25
2019-05-23T01:33:59.029Z,101152.35
2019-05-23T01:39:23.386Z,101160.00
2019-05-23T01:44:48.472Z,101158.90
2019-05-23T01:50:14.131Z,101164.51
2019-05-23T01:55:38.260Z,101168.66
2019-05-23T02:01:02.442Z,101172.55
2019-05-23T02:06:27.194Z,101175.38
2019-05-23T02:11:52.265Z,101173.53
2019-05-23T02:17:17.172Z,101172.55
2019-05-23T02:22:42.421Z,101179.33
2019-05-23T02:28:08.395Z,101177.47
2019-05-23T02:33:33.597Z,101175.27
2019-05-23T02:39:15.774Z,101174.01
2019-05-23T02:44:39.577Z,101172.91
2019-05-23T02:50:06.987Z,101175.94
2019-05-23T02:55:36.036Z,101176.70
2019-05-23T03:01:22.887Z,101178.46
2019-05-23T03:06:48.042Z,101176.33
2019-05-23T03:12:15.328Z,101178.32
2019-05-23T03:17:43.071Z,101182.81
2019-05-23T03:23:13.600Z,101184.72
2019-05-23T03:28:40.757Z,101184.45
2019-05-23T03:34:07.220Z,101186.67
2019-05-23T03:39:32.137Z,101184.30
2019-05-23T03:44:57.410Z,101189.38
2019-05-23T03:50:21.724Z,101191.64
2019-05-23T03:55:50.001Z,101181.91
2019-05-23T04:01:15.823Z,101191.65
2019-05-23T04:06:39.750Z,101198.95
2019-05-23T04:12:04.277Z,101211.42
2019-05-23T04:17:29.024Z,101212.38
2019-05-23T04:22:54.749Z,101213.23
2019-05-23T04:28:19.452Z,101220.55
2019-05-23T04:33:43.567Z,101217.30
2019-05-23T04:39:08.494Z,101232.64
2019-05-23T04:44:33.107Z,101230.22
2019-05-23T04:49:57.660Z,101239.58
2019-05-23T04:55:23.473Z,101248.83
2019-05-23T05:00:48.574Z,101245.16
2019-05-23T05:06:12.481Z,101251.70
2019-05-23T05:11:36.768Z,101250.80
2019-05-23T05:17:01.953Z,101250.89
2019-05-23T05:22:26.492Z,101252.17
2019-05-23T05:27:51.241Z,101254.61
2019-05-23T05:33:16.649Z,101256.60
2019-05-23T05:38:40.905Z,101253.28
2019-05-23T05:44:05.698Z,101249.38
2019-05-23T05:49:29.927Z,101255.44
2019-05-23T05:54:54.063Z,101254.15
2019-05-23T06:00:32.641Z,101261.48
2019-05-23T06:06:21.966Z,101260.41
2019-05-23T06:11:47.001Z,101257.53
2019-05-23T06:17:14.290Z,101263.19
2019-05-23T06:22:38.803Z,101265.01
2019-05-23T06:28:03.090Z,101265.41
2019-05-23T06:33:28.442Z,101274.62
2019-05-23T06:38:55.164Z,101270.92
2019-05-23T06:44:19.880Z,101267.80
2019-05-23T06:49:43.539Z,101280.83
2019-05-23T06:55:08.325Z,101281.50
2019-05-23T07:00:32.754Z,101279.98
2019-05-23T07:05:58.589Z,101281.95
2019-05-23T07:11:23.973Z,101287.28
2019-05-23T07:16:50.202Z,101288.13
2019-05-23T07:22:13.424Z,101285.88
2019-05-23T07:27:38.639Z,101287.41
2019-05-23T07:33:03.399Z,101300.22
2019-05-23T07:38:27.494Z,101300.78
2019-05-23T07:43:51.918Z,101294.65
2019-05-23T07:49:16.544Z,101292.67
2019-05-23T07:54:46.258Z,101293.93
2019-05-23T08:00:18.244Z,101291.09
2019-05-23T08:05:41.770Z,101290.70
2019-05-23T08:11:05.602Z,101287.47
2019-05-23T08:16:29.475Z,101290.11
2019-05-23T08:21:53.468Z,101300.06
2019-05-23T08:27:18.007Z,101301.64
2019-05-23T08:32:43.839Z,101305.38
2019-05-23T08:38:07.976Z,101302.81
2019-05-23T08:43:32.834Z,101302.08
2019-05-23T08:48:56.861Z,101292.34
2019-05-23T08:54:21.793Z,101295.13
2019-05-23T08:59:46.111Z,101288.99
2019-05-23T09:05:11.613Z,101287.16
2019-05-23T09:10:37.485Z,101295.70
2019-05-23T09:16:02.456Z,101291.30
2019-05-23T09:21:26.560Z,101288.95
2019-05-23T09:26:52.130Z,101286.95
2019-05-23T09:32:16.003Z,101292.52
2019-05-23T09:37:41.078Z,101288.04
2019-05-23T09:43:06.323Z,101289.33
2019-05-23T09:48:30.582Z,101285.92
2019-05-23T09:53:55.211Z,101284.16
2019-05-23T09:59:19.713Z,101274.80
2019-05-23T10:04:44.193Z,101286.38
2019-05-23T10:10:10.582Z,101280.41
2019-05-23T10:15:45.119Z,101278.48
2019-05-23T10:21:09.420Z,101274.13
2019-05-23T10:26:33.213Z,101295.34
2019-05-23T10:31:57.636Z,101290.11
2019-05-23T10:37:22.337Z,101275.08
2019-05-23T10:42:48.150Z,101272.81
2019-05-23T10:48:12.738Z,101271.19
2019-05-23T10:53:37.928Z,101267.75
2019-05-23T10:59:02.077Z,101269.72
2019-05-23T11:04:25.494Z,101260.13
2019-05-23T11:09:50.395Z,101267.81
2019-05-23T11:15:16.785Z,101261.03
2019-05-23T11:20:41.998Z,101258.30
2019-05-23T11:26:09.274Z,101269.66
2019-05-23T11:31:34.044Z,101260.80
2019-05-23T11:36:58.724Z,101250.44
2019-05-23T11:42:23.290Z,101251.35
2019-05-23T11:47:48.061Z,101255.75
2019-05-23T11:53:11.756Z,101250.39
2019-05-23T11:58:37.091Z,101250.70
2019-05-23T12:04:14.380Z,101246.78
2019-05-23T12:09:39.608Z,101247.03
2019-05-23T12:15:06.611Z,101238.36
2019-05-23T12:20:30.386Z,101239.94
2019-05-23T12:25:55.075Z,101233.42
2019-05-23T12:31:19.358Z,101227.31
2019-05-23T12:36:43.465Z,101221.22
2019-05-23T12:42:07.994Z,101207.05
2019-05-23T12:47:45.663Z,101206.12
2019-05-23T12:53:12.590Z,101203.06
2019-05-23T12:58:37.400Z,101205.00
2019-05-23T13:04:02.232Z,101208.25
2019-05-23T13:09:28.306Z,101205.53
2019-05-23T13:14:58.167Z,101189.72
2019-05-23T13:20:18.997Z,101191.80
2019-05-23T13:25:43.503Z,101197.87
2019-05-23T13:31:08.113Z,101192.94
2019-05-23T13:36:31.996Z,101191.64
2019-05-23T13:41:55.979Z,101174.86
2019-05-23T13:47:20.510Z,101175.81
2019-05-23T13:52:44.681Z,101174.34
2019-05-23T13:58:08.526Z,101169.31
2019-05-23T14:03:34.038Z,101170.09
2019-05-23T14:08:58.496Z,101167.47
2019-05-23T14:14:23.438Z,101172.56
2019-05-23T14:19:50.028Z,101168.99
2019-05-23T14:25:15.690Z,101165.52
2019-05-23T14:30:58.062Z,101162.67
2019-05-23T14:36:40.519Z,101150.28
2019-05-23T14:42:10.468Z,101141.48
2019-05-23T14:47:51.415Z,101142.41
2019-05-23T14:53:18.445Z,101146.53
2019-05-23T14:58:43.262Z,101146.51
2019-05-23T15:04:07.983Z,101141.86
2019-05-23T15:09:32.306Z,101135.17
2019-05-23T15:14:56.051Z,101129.29
2019-05-23T15:20:20.006Z,101130.84
2019-05-23T15:25:43.833Z,101133.47
2019-05-23T15:31:08.623Z,101123.89
2019-05-23T15:36:33.278Z,101115.63
2019-05-23T15:41:58.967Z,101118.91
2019-05-23T15:47:26.085Z,101116.41
2019-05-23T15:53:01.539Z,101115.38
2019-05-23T15:58:37.645Z,101111.44
2019-05-23T16:04:05.716Z,101116.48
2019-05-23T16:09:31.141Z,101114.76
2019-05-23T16:14:55.090Z,101111.20
2019-05-23T16:20:20.028Z,101105.55
2019-05-23T16:25:43.749Z,101110.09
2019-05-23T16:31:08.531Z,101101.16
2019-05-23T16:36:32.567Z,101106.31
2019-05-23T16:41:56.587Z,101108.84
2019-05-23T16:47:20.433Z,101109.23
2019-05-23T16:52:44.709Z,101105.91
2019-05-23T16:58:18.409Z,101108.25
2019-05-23T17:03:57.609Z,101107.66
2019-05-23T17:09:38.895Z,101108.53
2019-05-23T17:15:08.850Z,101103.51
2019-05-23T17:20:50.746Z,101108.64
2019-05-23T17:26:23.974Z,101118.55
2019-05-23T17:31:49.652Z,101111.86
2019-05-23T17:37:13.883Z,101112.52
2019-05-23T17:42:38.054Z,101111.67
2019-05-23T17:48:03.553Z,101108.77
2019-05-23T17:53:28.272Z,101106.80
2019-05-23T17:58:53.113Z,101107.20
2019-05-23T18:04:18.562Z,101103.39
2019-05-23T18:09:42.442Z,101111.97
2019-05-23T18:15:10.080Z,101109.95
2019-05-23T18:20:35.596Z,101113.71
2019-05-23T18:26:00.261Z,101115.13
2019-05-23T18:31:27.822Z,101116.64
2019-05-23T18:36:52.337Z,101118.78
2019-05-23T18:42:16.710Z,101127.45
2019-05-23T18:47:43.934Z,101121.67
2019-05-23T18:53:09.774Z,101125.99
2019-05-23T18:58:34.159Z,101130.52
2019-05-23T19:03:59.065Z,101130.74
2019-05-23T19:09:23.989Z,101135.22
2019-05-23T19:14:47.675Z,101145.98
2019-05-23T19:20:13.736Z,101143.38
2019-05-23T19:25:38.642Z,101141.66
2019-05-23T19:31:04.053Z,101150.10
2019-05-23T19:36:28.430Z,101159.52
2019-05-23T19:41:52.496Z,101153.75
2019-05-23T19:47:17.535Z,101155.07
2019-05-23T19:52:41.445Z,101158.80
2019-05-23T19:58:06.217Z,101160.86
2019-05-23T20:03:32.806Z,101147.26
2019-05-23T20:08:57.622Z,101145.87
2019-05-23T20:14:22.422Z,101145.31
2019-05-23T20:19:50.310Z,101139.96
2019-05-23T20:25:13.900Z,101146.73
2019-05-23T20:30:59.511Z,101149.78
2019-05-23T20:36:23.738Z,101145.03
2019-05-23T20:41:48.268Z,101143.96
2019-05-23T20:47:13.880Z,101146.63
2019-05-23T20:52:37.949Z,101146.20
2019-05-23T20:58:02.710Z,101147.27
2019-05-23T21:03:28.258Z,101139.92
2019-05-23T21:08:51.894Z,101135.45
2019-05-23T21:14:16.719Z,101130.66
2019-05-23T21:19:40.809Z,101136.34
2019-05-23T21:25:05.513Z,101128.47
2019-05-23T21:30:30.415Z,101135.41
2019-05-23T21:35:55.105Z,101136.00
2019-05-23T21:41:18.745Z,101130.61
2019-05-23T21:46:43.563Z,101130.52
2019-05-23T21:52:08.342Z,101127.66
2019-05-23T21:57:32.999Z,101127.14
2019-05-23T22:02:58.935Z,101126.95
2019-05-23T22:08:22.912Z,101128.27
2019-05-23T22:13:47.061Z,101117.10
2019-05-23T22:19:15.302Z,101122.50
2019-05-23T22:24:39.250Z,101121.19
2019-05-23T22:30:05.222Z,101113.48
2019-05-23T22:35:29.895Z,101113.15
2019-05-23T22:40:54.444Z,101110.39
2019-05-23T22:46:20.911Z,101108.97
2019-05-23T22:51:45.567Z,101110.03
2019-05-23T22:57:10.206Z,101105.58
2019-05-23T23:02:34.216Z,101104.00
2019-05-23T23:07:59.087Z,101101.73
2019-05-23T23:13:37.635Z,101098.13
2019-05-23T23:18:49.533Z,101096.48
2019-05-23T23:24:13.546Z,101094.32
2019-05-23T23:29:37.761Z,101094.98
2019-05-23T23:35:01.899Z,101097.54
2019-05-23T23:40:25.621Z,101086.48
2019-05-23T23:46:08.582Z,101087.15
2019-05-23T23:51:50.367Z,101091.93
2019-05-23T23:57:32.879Z,101089.33
